Time;durP1;ratioP1;P1;durP2;ratioP2;P2;SDS_P1;SDS_P2;PMS_P1;PMS_P2;Temp;Humidity;BMP_temperature;BMP_pressure;BME280_temperature;BME280_humidity;BME280_pressure;Samples;Min_cycle;Max_cycle;Signal;HPM_P1;HPM_P2
2023/08/09 00:00:45;;;;;;;;;3.33;3.00;;;;;22.11;53.09;101128.13;5039208;28;45528;-77
2023/08/09 00:03:11;;;;;;;;;4.00;4.00;;;;;22.07;53.66;101125.66;5038693;28;45545;-73
2023/08/09 00:05:36;;;;;;;;;3.00;2.00;;;;;22.12;52.86;101135.22;5039250;28;45208;-71
2023/08/09 00:08:03;;;;;;;;;5.00;3.33;;;;;22.03;52.97;101119.59;5039389;28;45506;-71
2023/08/09 00:10:29;;;;;;;;;3.00;3.00;;;;;22.00;52.96;101104.56;5038969;28;46206;-73
2023/08/09 00:12:55;;;;;;;;;3.00;3.00;;;;;21.98;52.89;101102.91;5037749;28;45573;-71
2023/08/09 00:15:21;;;;;;;;;4.00;4.00;;;;;22.06;53.42;101119.44;5038783;28;45916;-70
2023/08/09 00:17:54;;;;;;;;;5.00;3.00;;;;;22.03;53.41;101123.09;5038105;28;45605;-71
2023/08/09 00:20:22;;;;;;;;;4.00;3.00;;;;;21.93;53.95;101119.06;5037713;28;46143;-71
2023/08/09 00:22:52;;;;;;;;;3.00;3.00;;;;;21.86;53.73;101125.56;5037626;28;45496;-69
2023/08/09 00:25:19;;;;;;;;;5.00;3.33;;;;;21.86;53.94;101117.59;5038377;28;45751;-72
2023/08/09 00:27:46;;;;;;;;;3.33;3.33;;;;;21.84;53.82;101123.91;5021830;28;45431;-72
2023/08/09 00:30:14;;;;;;;;;2.67;2.33;;;;;21.68;54.32;101094.28;5033314;28;47684;-71
2023/08/09 00:32:45;;;;;;;;;3.67;3.00;;;;;21.68;54.13;101107.63;5039032;28;45442;-72
2023/08/09 00:35:12;;;;;;;;;3.00;3.00;;;;;21.69;54.78;101112.00;5038886;28;45586;-71
2023/08/09 00:37:39;;;;;;;;;4.00;4.00;;;;;21.73;54.38;101126.97;5039569;28;45554;-74
2023/08/09 00:40:11;;;;;;;;;5.00;3.00;;;;;21.66;54.63;101130.78;5042334;28;45581;-79
2023/08/09 00:42:46;;;;;;;;;7.00;3.67;;;;;21.62;54.39;101124.72;5042644;28;45414;-73
2023/08/09 00:45:12;;;;;;;;;11.00;8.33;;;;;21.69;54.52;101139.56;5038498;28;45480;-71
2023/08/09 00:47:39;;;;;;;;;9.33;7.33;;;;;21.64;54.40;101124.66;5038686;28;45521;-71
2023/08/09 00:50:06;;;;;;;;;6.67;5.00;;;;;21.73;54.10;101138.50;5032283;28;48025;-72
2023/08/09 00:52:33;;;;;;;;;3.67;3.67;;;;;21.76;54.16;101132.22;5034963;28;45550;-72
2023/08/09 00:55:00;;;;;;;;;5.67;3.67;;;;;21.69;53.97;101115.56;5031421;28;45553;-69
2023/08/09 00:57:27;;;;;;;;;4.33;4.33;;;;;21.72;54.22;101114.59;5036867;28;45501;-70
2023/08/09 00:59:53;;;;;;;;;4.00;4.00;;;;;21.65;53.97;101110.41;5038748;28;46086;-70
2023/08/09 01:02:19;;;;;;;;;4.67;3.00;;;;;21.61;53.92;101106.97;5035851;28;46082;-70
2023/08/09 01:04:44;;;;;;;;;2.33;2.33;;;;;21.75;54.03;101128.66;5036701;28;45623;-70
2023/08/09 01:07:52;;;;;;;;;4.00;2.33;;;;;21.74;54.10;101123.41;5038878;28;45466;-70
2023/08/09 01:10:28;;;;;;;;;5.67;4.00;;;;;21.70;54.05;101129.75;5031273;28;46103;-71
2023/08/09 01:13:03;;;;;;;;;4.67;3.33;;;;;21.72;54.27;101138.56;5036406;28;46283;-70
2023/08/09 01:15:35;;;;;;;;;4.67;3.00;;;;;21.65;54.36;101124.59;5037831;28;45475;-71
2023/08/09 01:18:03;;;;;;;;;5.00;4.00;;;;;21.74;54.20;101142.06;5022831;28;45455;-72
2023/08/09 01:20:30;;;;;;;;;2.00;2.00;;;;;21.53;54.60;101109.94;5037347;28;45405;-71
2023/08/09 01:23:02;;;;;;;;;3.67;3.67;;;;;21.71;54.54;101134.16;5037542;28;45617;-69
2023/08/09 01:25:30;;;;;;;;;2.67;2.67;;;;;21.75;54.40;101143.78;5038725;28;45439;-71
2023/08/09 01:27:59;;;;;;;;;3.00;3.00;;;;;21.52;54.42;101108.22;5040250;28;45332;-71
2023/08/09 01:30:25;;;;;;;;;3.33;3.00;;;;;21.78;54.54;101152.53;5037873;28;47277;-72
2023/08/09 01:32:51;;;;;;;;;2.33;2.33;;;;;21.68;54.27;101128.94;5039727;28;45335;-72
2023/08/09 01:35:17;;;;;;;;;2.00;2.00;;;;;21.70;54.59;101135.09;5040116;28;45359;-72
2023/08/09 01:37:49;;;;;;;;;3.33;3.33;;;;;21.81;54.58;101149.75;5038952;28;45507;-72
2023/08/09 01:40:17;;;;;;;;;4.00;2.00;;;;;21.80;54.88;101152.47;5037265;28;48239;-72
2023/08/09 01:42:43;;;;;;;;;3.33;3.00;;;;;21.60;54.93;101124.78;5039503;28;45461;-72
2023/08/09 01:45:10;;;;;;;;;2.00;2.00;;;;;21.77;55.12;101144.59;5036547;28;45491;-74
2023/08/09 01:47:38;;;;;;;;;2.33;2.33;;;;;21.75;55.58;101152.63;5052942;28;45360;-73
2023/08/09 01:50:05;;;;;;;;;4.00;3.00;;;;;21.74;55.31;101156.25;5036910;28;45832;-73
2023/08/09 01:52:55;;;;;;;;;4.33;3.00;;;;;21.72;55.44;101150.09;5036776;28;45403;-72
2023/08/09 01:55:50;;;;;;;;;3.00;3.00;;;;;21.71;55.39;101152.81;5036689;28;45541;-74
2023/08/09 01:58:15;;;;;;;;;5.00;3.00;;;;;21.53;55.55;101123.25;5037794;28;45415;-72
2023/08/09 02:00:41;;;;;;;;;1.67;1.67;;;;;21.54;55.64;101118.81;5036855;28;46132;-73
2023/08/09 02:03:06;;;;;;;;;2.67;2.67;;;;;21.72;55.74;101154.56;5036971;28;45505;-72
2023/08/09 02:05:32;;;;;;;;;2.33;1.67;;;;;21.73;55.62;101158.97;5036854;28;45482;-72
2023/08/09 02:07:57;;;;;;;;;4.00;3.67;;;;;21.68;55.80;101150.28;5037289;28;45612;-73
2023/08/09 02:10:23;;;;;;;;;2.00;2.00;;;;;21.68;56.09;101150.28;5036302;28;45478;-73
2023/08/09 02:12:50;;;;;;;;;4.00;3.00;;;;;21.66;56.34;101160.97;5037081;28;45334;-72
2023/08/09 02:15:16;;;;;;;;;3.00;2.67;;;;;21.57;56.53;101142.69;5035625;28;45757;-73
2023/08/09 02:17:44;;;;;;;;;2.00;2.00;;;;;21.55;56.46;101140.06;5037155;28;45477;-73
2023/08/09 02:20:12;;;;;;;;;2.00;2.00;;;;;21.29;56.35;101095.72;5036318;28;45593;-73
2023/08/09 02:22:39;;;;;;;;;2.33;2.00;;;;;21.57;56.50;101146.22;5034842;28;45540;-73
2023/08/09 02:25:40;;;;;;;;;3.00;3.00;;;;;21.54;56.83;101153.44;5038084;28;45291;-71
2023/08/09 02:28:06;;;;;;;;;2.33;2.00;;;;;21.48;56.69;101145.69;5022307;28;45557;-71
2023/08/09 02:30:49;;;;;;;;;3.00;2.33;;;;;21.48;56.80;101149.22;5035935;28;46460;-72
2023/08/09 02:33:23;;;;;;;;;2.00;2.00;;;;;21.30;56.82;101121.41;5036240;28;45565;-74
2023/08/09 02:36:02;;;;;;;;;3.00;3.00;;;;;21.47;56.61;101142.13;5033606;28;45424;-73
2023/08/09 02:38:29;;;;;;;;;2.67;2.67;;;;;21.46;56.65;101150.22;5037647;28;45535;-71
2023/08/09 02:40:55;;;;;;;;;2.67;2.67;;;;;21.43;56.92;101151.19;5034958;28;45965;-71
2023/08/09 02:43:25;;;;;;;;;2.00;2.00;;;;;21.28;56.97;101131.25;5036510;28;45338;-72
2023/08/09 02:45:52;;;;;;;;;2.67;2.67;;;;;21.37;57.21;101148.69;5034957;28;45379;-72
2023/08/09 02:48:18;;;;;;;;;4.00;2.00;;;;;21.23;56.87;101116.38;5036962;28;45473;-73
2023/08/09 02:50:44;;;;;;;;;4.33;3.00;;;;;21.28;57.33;101141.91;5035741;28;45329;-72
2023/08/09 02:53:10;;;;;;;;;5.33;2.00;;;;;21.27;57.13;101142.84;5036063;28;45232;-71
2023/08/09 02:55:36;;;;;;;;;3.00;3.00;;;;;21.28;57.55;101151.69;5036240;28;45352;-72
2023/08/09 02:58:04;;;;;;;;;2.00;2.00;;;;;21.20;57.60;101135.13;5036712;28;45535;-71
2023/08/09 03:00:32;;;;;;;;;3.00;2.00;;;;;21.25;57.60;101138.50;5036065;28;45422;-71
2023/08/09 03:02:58;;;;;;;;;3.33;1.67;;;;;21.19;57.71;101128.94;5036533;28;45536;-72
2023/08/09 03:05:25;;;;;;;;;2.33;2.00;;;;;21.18;57.66;101129.84;5035777;28;45435;-72
2023/08/09 03:07:51;;;;;;;;;3.00;2.00;;;;;21.20;57.71;101133.34;5036285;28;45484;-72
2023/08/09 03:10:17;;;;;;;;;1.33;1.33;;;;;21.18;57.32;101137.84;5036104;28;45400;-73
2023/08/09 03:12:43;;;;;;;;;2.00;2.00;;;;;21.20;57.75;101145.78;5036139;28;45534;-72
2023/08/09 03:15:10;;;;;;;;;2.33;2.00;;;;;21.14;58.00;101146.84;5038890;28;45776;-71
2023/08/09 03:17:36;;;;;;;;;2.00;2.00;;;;;21.02;58.20;101129.50;5038008;28;45470;-71
2023/08/09 03:20:14;;;;;;;;;2.00;2.00;;;;;21.12;58.31;101152.25;5037811;28;45551;-72
2023/08/09 03:22:42;;;;;;;;;1.33;1.33;;;;;20.99;58.09;101142.94;5039034;28;45371;-71
2023/08/09 03:25:08;;;;;;;;;3.67;2.00;;;;;21.10;57.94;101164.75;5039037;28;45425;-70
2023/08/09 03:27:34;;;;;;;;;2.00;2.00;;;;;21.08;58.62;101166.59;5040749;28;45287;-72
2023/08/09 03:30:00;;;;;;;;;4.00;1.33;;;;;21.05;58.42;101176.50;5040224;28;45661;-69
2023/08/09 03:32:26;;;;;;;;;2.67;1.00;;;;;21.04;58.35;101170.28;5040242;28;45655;-72
2023/08/09 03:34:51;;;;;;;;;4.00;2.00;;;;;20.96;58.61;101148.38;5040311;28;45602;-73
2023/08/09 03:37:17;;;;;;;;;2.00;2.00;;;;;21.06;58.57;101164.91;5039848;28;45442;-73
2023/08/09 03:39:43;;;;;;;;;3.00;2.00;;;;;20.87;58.72;101130.06;5038223;28;46010;-75
2023/08/09 03:42:09;;;;;;;;;4.00;2.00;;;;;20.89;58.77;101144.19;5037651;28;45525;-72
2023/08/09 03:44:40;;;;;;;;;2.00;2.00;;;;;21.03;58.63;101168.56;5037868;28;46782;-73
2023/08/09 03:47:06;;;;;;;;;1.33;1.33;;;;;21.07;58.67;101161.31;5039261;28;45427;-71
2023/08/09 03:49:32;;;;;;;;;3.00;1.00;;;;;21.07;58.92;101167.53;5054605;28;46851;-73
2023/08/09 03:51:58;;;;;;;;;3.00;2.00;;;;;20.98;59.17;101153.69;5038727;28;45394;-72
2023/08/09 03:54:23;;;;;;;;;4.00;2.00;;;;;21.08;58.96;101176.38;5038797;28;45486;-73
2023/08/09 03:56:49;;;;;;;;;2.67;1.00;;;;;21.01;59.12;101154.41;5038687;28;45466;-72
2023/08/09 03:59:14;;;;;;;;;2.33;2.00;;;;;20.97;58.94;101160.75;5038547;28;46140;-74
2023/08/09 04:01:40;;;;;;;;;2.00;2.00;;;;;21.04;59.14;101175.59;5038896;28;45386;-73
2023/08/09 04:04:05;;;;;;;;;1.67;1.67;;;;;21.09;59.11;101192.28;5039364;28;45539;-71
2023/08/09 04:06:31;;;;;;;;;4.00;2.33;;;;;21.06;59.38;101189.75;5039520;28;45354;-72
2023/08/09 04:08:57;;;;;;;;;4.00;2.00;;;;;21.05;59.55;101184.50;5039333;28;45380;-72
2023/08/09 04:11:22;;;;;;;;;3.00;1.00;;;;;21.06;59.88;101191.53;5039490;28;45224;-73
2023/08/09 04:13:48;;;;;;;;;2.00;2.00;;;;;21.03;59.32;101200.50;5038364;28;45486;-70
2023/08/09 04:16:17;;;;;;;;;1.00;1.00;;;;;20.91;59.50;101184.97;5032382;28;45611;-71
2023/08/09 04:18:43;;;;;;;;;1.33;1.33;;;;;21.03;59.64;101203.19;5038833;28;45535;-70
2023/08/09 04:21:09;;;;;;;;;1.33;1.33;;;;;21.03;59.41;101208.50;5038778;28;45417;-72
2023/08/09 04:23:35;;;;;;;;;2.67;1.00;;;;;21.05;59.07;101212.00;5038022;28;45348;-72
2023/08/09 04:26:02;;;;;;;;;1.00;1.00;;;;;21.08;59.51;101208.34;5036608;28;45474;-72
2023/08/09 04:28:27;;;;;;;;;2.33;1.33;;;;;21.07;59.64;101210.16;5055078;28;48008;-72
2023/08/09 04:30:53;;;;;;;;;1.33;1.33;;;;;21.08;59.39;101209.22;5039390;28;45505;-72
2023/08/09 04:33:18;;;;;;;;;1.33;1.33;;;;;21.10;59.70;101211.84;5039912;28;45469;-70
2023/08/09 04:35:44;;;;;;;;;2.00;1.33;;;;;21.06;59.47;101205.72;5038716;28;45378;-71
2023/08/09 04:38:10;;;;;;;;;2.00;2.00;;;;;21.09;60.45;101216.25;5040028;28;45944;-74
2023/08/09 04:40:36;;;;;;;;;4.00;2.00;;;;;21.10;59.62;101217.16;5058310;28;45368;-77
2023/08/09 04:43:06;;;;;;;;;2.33;1.33;;;;;20.89;59.88;101182.34;5042295;28;45398;-73
2023/08/09 04:45:36;;;;;;;;;3.00;1.33;;;;;21.04;59.66;101212.91;5040879;28;45501;-71
2023/08/09 04:48:03;;;;;;;;;1.00;1.00;;;;;20.89;60.43;101192.13;5038345;28;47977;-70
2023/08/09 04:50:29;;;;;;;;;3.67;2.00;;;;;21.16;59.95;101227.59;5039124;28;45406;-71
2023/08/09 04:52:54;;;;;;;;;2.67;2.67;;;;;20.87;59.52;101173.53;5039147;28;45743;-70
2023/08/09 04:55:20;;;;;;;;;2.00;1.33;;;;;21.14;59.73;101218.78;5037422;28;45456;-70
2023/08/09 04:57:47;;;;;;;;;2.00;2.00;;;;;21.24;60.02;101228.22;5035945;28;47647;-69
2023/08/09 05:00:13;;;;;;;;;2.33;2.00;;;;;21.28;59.58;101234.28;5035767;28;45398;-71
2023/08/09 05:02:42;;;;;;;;;1.00;1.00;;;;;21.23;59.11;101220.25;5038734;28;45910;-70
2023/08/09 05:05:09;;;;;;;;;1.00;1.00;;;;;21.35;59.31;101236.69;5038659;28;45370;-69
2023/08/09 05:07:35;;;;;;;;;1.33;1.33;;;;;21.39;59.52;101237.44;5038657;28;45503;-71
2023/08/09 05:10:03;;;;;;;;;1.00;1.00;;;;;21.35;58.95;101226.00;5037795;28;45515;-71
2023/08/09 05:12:28;;;;;;;;;2.00;2.00;;;;;21.35;59.24;101218.03;5036208;28;45481;-70
2023/08/09 05:14:54;;;;;;;;;1.33;1.33;;;;;21.47;59.16;101235.41;5037321;28;45481;-70
2023/08/09 05:17:20;;;;;;;;;2.67;1.67;;;;;21.49;58.86;101228.22;5028816;28;45583;-72
2023/08/09 05:19:45;;;;;;;;;2.00;1.00;;;;;21.52;59.02;101229.91;5036901;28;45515;-70
2023/08/09 05:22:11;;;;;;;;;4.67;2.00;;;;;21.54;58.43;101231.59;5037081;28;45507;-70
2023/08/09 05:24:37;;;;;;;;;1.00;1.00;;;;;21.28;59.02;101186.34;5037925;28;45458;-68
2023/08/09 05:27:03;;;;;;;;;1.33;1.33;;;;;21.55;58.72;101227.16;5037135;28;45562;-71
2023/08/09 05:29:32;;;;;;;;;1.00;1.00;;;;;21.59;58.47;101227.00;5036438;28;45547;-72
2023/08/09 05:31:58;;;;;;;;;2.00;1.00;;;;;21.25;58.59;101170.47;5035673;28;45549;-71
2023/08/09 05:34:24;;;;;;;;;4.00;1.00;;;;;21.11;58.60;101144.31;5037346;28;45544;-71
2023/08/09 05:36:50;;;;;;;;;2.33;1.67;;;;;21.59;58.41;101224.34;5036437;28;46620;-72
2023/08/09 05:39:16;;;;;;;;;1.00;1.00;;;;;21.46;58.68;101203.50;5037603;28;45614;-70
2023/08/09 05:41:42;;;;;;;;;2.00;1.33;;;;;21.53;58.72;101216.53;5037035;28;45450;-72
2023/08/09 05:44:07;;;;;;;;;2.00;1.00;;;;;21.34;58.87;101188.78;5038595;28;45505;-71
2023/08/09 05:46:33;;;;;;;;;0.33;0.33;;;;;21.68;58.18;101238.25;5036978;28;45702;-70
2023/08/09 05:49:02;;;;;;;;;1.00;1.00;;;;;21.68;58.27;101246.25;5036767;28;45588;-72
2023/08/09 05:51:29;;;;;;;;;1.00;1.00;;;;;21.76;58.29;101252.19;5037917;28;45386;-71
2023/08/09 05:53:55;;;;;;;;;1.00;1.00;;;;;21.76;58.26;101249.50;5036805;28;45622;-71
2023/08/09 05:56:21;;;;;;;;;1.00;1.00;;;;;21.75;58.15;101251.28;5035923;28;46221;-71
2023/08/09 05:58:47;;;;;;;;;1.67;1.67;;;;;21.79;58.30;101250.25;5036531;28;45386;-73
2023/08/09 06:01:14;;;;;;;;;1.00;1.00;;;;;21.76;58.34;101250.38;5037355;28;45627;-72
2023/08/09 06:03:39;;;;;;;;;1.00;1.00;;;;;21.46;58.44;101199.03;5036656;28;45411;-72
2023/08/09 06:06:12;;;;;;;;;1.67;1.00;;;;;21.74;58.71;101254.03;5037294;28;45621;-70
2023/08/09 06:08:39;;;;;;;;;3.00;1.67;;;;;21.74;58.49;101254.88;5035210;28;45555;-72
2023/08/09 06:11:05;;;;;;;;;2.00;0.25;;;;;21.71;58.33;101244.34;5036553;28;45406;-71
2023/08/09 06:13:32;;;;;;;;;1.00;1.00;;;;;21.76;58.21;101244.19;5037799;28;45446;-71
2023/08/09 06:15:58;;;;;;;;;0.50;0.50;;;;;21.88;58.16;101264.16;5037923;28;46322;-73
2023/08/09 06:18:24;;;;;;;;;2.00;1.00;;;;;21.93;58.19;101256.88;5036421;28;45454;-72
2023/08/09 06:20:51;;;;;;;;;2.33;2.33;;;;;21.70;58.04;101212.41;5036579;28;45366;-71
2023/08/09 06:23:16;;;;;;;;;3.00;2.00;;;;;21.93;58.03;101244.41;5036816;28;45384;-72
2023/08/09 06:25:42;;;;;;;;;3.00;1.67;;;;;21.73;57.96;101209.63;5037093;28;45483;-72
2023/08/09 06:28:08;;;;;;;;;3.67;1.67;;;;;21.87;57.75;101230.44;5035430;28;45438;-73
2023/08/09 06:30:34;;;;;;;;;0.25;0.25;;;;;21.93;57.71;101239.09;5036269;28;45574;-72
2023/08/09 06:33:03;;;;;;;;;2.00;2.00;;;;;22.06;57.54;101263.47;5037596;28;45420;-72
2023/08/09 06:35:33;;;;;;;;;0.75;0.75;;;;;22.12;57.70;101275.75;5036062;28;45742;-72
2023/08/09 06:37:59;;;;;;;;;1.00;1.00;;;;;22.03;57.75;101260.94;5036012;28;45683;-73
2023/08/09 06:40:24;;;;;;;;;1.50;1.00;;;;;22.13;57.63;101277.47;5036067;28;45448;-72
2023/08/09 06:42:50;;;;;;;;;1.00;1.00;;;;;22.12;57.71;101291.75;5035958;28;45436;-72
2023/08/09 06:45:16;;;;;;;;;1.50;1.50;;;;;22.09;58.13;101290.06;5037342;28;45421;-70
2023/08/09 06:47:41;;;;;;;;;1.00;1.00;;;;;22.10;57.72;101296.28;5035924;28;45411;-72
2023/08/09 06:50:07;;;;;;;;;2.25;2.00;;;;;22.06;57.88;101298.16;5035358;28;46482;-70
2023/08/09 06:52:36;;;;;;;;;1.50;1.00;;;;;21.92;58.31;101287.13;5037945;28;45243;-72
2023/08/09 06:55:09;;;;;;;;;2.00;2.00;;;;;21.85;58.25;101267.81;5036230;28;46072;-72
2023/08/09 06:57:35;;;;;;;;;1.25;1.25;;;;;21.19;58.44;101168.91;5035216;28;45453;-73
2023/08/09 07:00:02;;;;;;;;;1.25;1.25;;;;;22.03;58.17;101320.50;5035169;28;45434;-72
2023/08/09 07:02:32;;;;;;;;;1.75;1.75;;;;;22.01;58.31;101300.13;5035994;28;45397;-71
2023/08/09 07:05:08;;;;;;;;;2.00;2.00;;;;;22.05;58.08;101304.44;5036000;28;45437;-71
2023/08/09 07:07:34;;;;;;;;;1.00;1.00;;;;;21.94;58.17;101291.47;5034383;28;45809;-72
2023/08/09 07:09:59;;;;;;;;;1.00;1.00;;;;;22.05;58.11;101317.78;5034282;28;45445;-72
2023/08/09 07:12:25;;;;;;;;;1.25;1.25;;;;;21.96;57.91;101300.31;5035453;28;45628;-73
2023/08/09 07:14:50;;;;;;;;;1.00;0.75;;;;;22.02;58.32;101308.09;5034641;28;45623;-72
2023/08/09 07:17:17;;;;;;;;;2.00;2.00;;;;;22.03;57.98;101311.63;5036003;28;45478;-71
2023/08/09 07:19:42;;;;;;;;;1.25;1.25;;;;;21.97;58.10;101302.06;5036103;28;45668;-73
2023/08/09 07:22:08;;;;;;;;;1.00;1.00;;;;;21.94;57.80;101296.81;5050615;28;45431;-71
2023/08/09 07:24:34;;;;;;;;;1.00;1.00;;;;;21.98;57.35;101289.59;5035323;28;45450;-71
2023/08/09 07:26:59;;;;;;;;;1.00;1.00;;;;;22.08;57.49;101298.97;5033969;28;45486;-71
2023/08/09 07:29:25;;;;;;;;;1.00;1.00;;;;;22.24;57.34;101323.34;5035355;28;45883;-72
2023/08/09 07:31:50;;;;;;;;;1.33;1.33;;;;;22.28;57.28;101321.41;5036117;28;45355;-72
2023/08/09 07:34:16;;;;;;;;;0.75;0.75;;;;;22.28;56.93;101316.97;5032435;28;46478;-72
2023/08/09 07:36:42;;;;;;;;;1.50;1.50;;;;;22.14;57.27;101297.88;5033324;28;45386;-71
2023/08/09 07:39:09;;;;;;;;;1.00;1.00;;;;;22.22;57.28;101323.38;5035236;28;45551;-74
2023/08/09 07:41:36;;;;;;;;;4.00;2.00;;;;;22.18;57.34;101312.84;5035706;28;45556;-71
2023/08/09 07:44:01;;;;;;;;;4.00;1.50;;;;;22.11;57.60;101308.66;5035025;28;46552;-71
2023/08/09 07:46:27;;;;;;;;;1.25;1.00;;;;;22.26;57.48;101325.94;5034397;28;45698;-70
2023/08/09 07:48:54;;;;;;;;;2.00;2.00;;;;;22.27;57.41;101322.34;5036463;28;45467;-72
2023/08/09 07:51:20;;;;;;;;;2.00;2.00;;;;;22.30;57.11;101331.09;5032954;28;45468;-73
2023/08/09 07:53:46;;;;;;;;;3.00;2.00;;;;;22.30;57.43;101333.75;5036181;28;45359;-74
2023/08/09 07:56:12;;;;;;;;;2.00;2.00;;;;;22.29;57.29;101341.84;5038582;28;45213;-73
2023/08/09 07:58:37;;;;;;;;;1.00;1.00;;;;;22.24;57.23;101331.34;5040692;28;45329;-74
2023/08/09 08:01:11;;;;;;;;;3.00;3.00;;;;;22.21;57.15;101320.78;5039788;28;45455;-75
2023/08/09 08:03:37;;;;;;;;;2.00;2.00;;;;;22.27;56.99;101320.53;5044365;28;45299;-74
2023/08/09 08:06:03;;;;;;;;;1.00;1.00;;;;;22.26;57.05;101318.81;5056138;28;45422;-74
2023/08/09 08:08:37;;;;;;;;;3.00;2.00;;;;;22.29;56.69;101309.81;5037672;28;45513;-73
2023/08/09 08:11:03;;;;;;;;;1.00;1.00;;;;;21.96;56.43;101249.63;5054097;28;45354;-74
2023/08/09 08:13:32;;;;;;;;;3.00;2.00;;;;;22.20;56.34;101276.31;5036736;28;46132;-74
2023/08/09 08:15:58;;;;;;;;;2.00;2.00;;;;;22.62;56.49;101337.88;5030295;28;46403;-73
2023/08/09 08:18:26;;;;;;;;;3.00;1.00;;;;;22.69;56.04;101343.00;5039107;28;45461;-73
2023/08/09 08:20:52;;;;;;;;;2.00;2.00;;;;;22.79;55.78;101337.22;5036943;28;45577;-74
2023/08/09 08:23:18;;;;;;;;;1.00;1.00;;;;;22.89;55.41;101339.53;5037520;28;45984;-72
2023/08/09 08:25:44;;;;;;;;;2.00;2.00;;;;;22.85;55.17;101326.31;5037545;28;45414;-71
2023/08/09 08:28:10;;;;;;;;;1.00;1.00;;;;;23.06;55.25;101355.78;5037221;28;45539;-73
2023/08/09 08:30:36;;;;;;;;;1.00;1.00;;;;;22.90;54.86;101312.78;5037333;28;45662;-72
2023/08/09 08:33:02;;;;;;;;;2.00;2.00;;;;;23.00;54.44;101308.81;5037138;28;45495;-71
2023/08/09 08:35:43;;;;;;;;;1.00;1.00;;;;;23.00;54.42;101306.16;5037069;28;45366;-74
2023/08/09 08:38:09;;;;;;;;;1.50;1.50;;;;;23.29;54.37;101366.41;5036539;28;45580;-73
2023/08/09 08:40:35;;;;;;;;;1.75;1.75;;;;;22.85;53.93;101270.22;5039232;28;45497;-73
2023/08/09 08:43:00;;;;;;;;;1.50;1.00;;;;;23.08;53.64;101314.72;5038089;28;45351;-73
2023/08/09 08:45:27;;;;;;;;;1.25;1.25;;;;;23.29;53.49;101345.03;5036344;28;45402;-73
2023/08/09 08:47:53;;;;;;;;;1.00;1.00;;;;;23.38;53.39;101356.28;5031712;28;45596;-72
2023/08/09 08:50:19;;;;;;;;;1.25;0.00;;;;;23.34;53.45;101346.66;5038256;28;45418;-72
2023/08/09 08:52:47;;;;;;;;;1.00;1.00;;;;;23.46;53.34;101364.84;5037673;28;45357;-72
2023/08/09 08:55:14;;;;;;;;;0.25;0.25;;;;;23.47;53.92;101370.13;5037349;28;45458;-74
2023/08/09 08:57:40;;;;;;;;;1.75;1.75;;;;;23.46;53.88;101364.84;5036659;28;45372;-74
2023/08/09 09:00:16;;;;;;;;;0.75;0.75;;;;;23.50;53.57;101361.09;5038036;28;45364;-69
2023/08/09 09:02:45;;;;;;;;;2.25;2.00;;;;;23.45;53.59;101341.72;5044256;28;46690;-73
2023/08/09 09:05:16;;;;;;;;;2.75;2.00;;;;;23.36;53.06;101320.72;5035763;28;46284;-70
2023/08/09 09:07:45;;;;;;;;;2.00;1.00;;;;;23.71;53.16;101376.25;5036762;28;46060;-74
2023/08/09 09:10:12;;;;;;;;;1.00;1.00;;;;;23.55;52.62;101351.09;5037166;28;45421;-73
2023/08/09 09:12:39;;;;;;;;;1.00;1.00;;;;;23.45;52.59;101345.25;5036307;28;45457;-72
2023/08/09 09:15:08;;;;;;;;;1.00;1.00;;;;;23.78;52.37;101392.06;5049193;28;45698;-72
2023/08/09 09:17:42;;;;;;;;;1.00;1.00;;;;;23.66;52.35;101350.66;5037631;28;45449;-74
2023/08/09 09:20:14;;;;;;;;;3.00;1.25;;;;;23.58;52.57;101323.34;5036277;28;45773;-71
2023/08/09 09:22:40;;;;;;;;;1.00;1.00;;;;;23.82;51.90;101341.03;5032647;28;47887;-70
2023/08/09 09:25:10;;;;;;;;;1.00;1.00;;;;;24.12;51.31;101384.28;5035764;28;45429;-70
2023/08/09 09:27:41;;;;;;;;;1.00;1.00;;;;;24.06;51.02;101352.47;5038753;28;45367;-69
2023/08/09 09:30:14;;;;;;;;;1.25;0.00;;;;;24.25;50.59;101379.28;5037643;28;45485;-71
2023/08/09 09:32:57;;;;;;;;;0.25;0.25;;;;;24.25;51.15;101384.63;5028499;28;45848;-73
2023/08/09 09:35:28;;;;;;;;;1.00;1.00;;;;;24.19;51.34;101378.69;5038645;28;45457;-73
2023/08/09 09:37:56;;;;;;;;;1.00;1.00;;;;;24.14;50.35;101360.16;5039218;28;45525;-71
2023/08/09 09:40:23;;;;;;;;;3.00;1.00;;;;;24.34;50.59;101384.22;5037795;28;45434;-72
2023/08/09 09:42:56;;;;;;;;;1.00;1.00;;;;;24.16;50.22;101333.34;5037248;28;45533;-72
2023/08/09 09:45:27;;;;;;;;;1.25;1.25;;;;;24.30;50.05;101352.31;5036902;28;45433;-74
2023/08/09 09:47:54;;;;;;;;;1.00;1.00;;;;;24.34;49.52;101357.44;5037011;28;45568;-71
2023/08/09 09:50:28;;;;;;;;;1.00;1.00;;;;;24.63;49.00;101375.78;5037121;28;45360;-73
2023/08/09 09:52:54;;;;;;;;;1.50;1.50;;;;;24.69;48.81;101372.84;5037312;28;46596;-73
2023/08/09 09:55:25;;;;;;;;;1.00;1.00;;;;;24.72;48.81;101378.03;5037244;28;45598;-73
2023/08/09 09:57:52;;;;;;;;;1.00;1.00;;;;;24.79;49.09;101379.50;5036342;28;45467;-74
2023/08/09 10:00:22;;;;;;;;;4.00;4.00;;;;;24.91;48.72;101389.63;5052533;28;45601;-72
2023/08/09 10:02:52;;;;;;;;;5.00;5.00;;;;;25.00;47.94;101377.59;5036043;28;45491;-72
2023/08/09 10:05:23;;;;;;;;;4.00;2.25;;;;;24.44;48.17;101284.72;5036319;28;45464;-75
2023/08/09 10:07:50;;;;;;;;;7.75;4.50;;;;;25.16;48.62;101389.31;5036014;28;45381;-74
2023/08/09 10:10:17;;;;;;;;;3.50;3.00;;;;;24.71;47.75;101285.25;5036223;28;45695;-74
2023/08/09 10:12:54;;;;;;;;;2.75;2.75;;;;;24.88;47.67;101309.41;5037806;28;45415;-75
2023/08/09 10:15:27;;;;;;;;;3.00;3.00;;;;;25.34;48.44;101382.22;5037652;28;45389;-74
2023/08/09 10:18:10;;;;;;;;;3.00;3.00;;;;;25.40;47.53;101383.72;5037132;28;45433;-74
2023/08/09 10:20:47;;;;;;;;;4.25;2.50;;;;;25.46;47.37;101375.38;5037159;28;45537;-73
2023/08/09 10:23:34;;;;;;;;;6.50;3.00;;;;;25.50;46.50;101378.78;5037249;28;45480;-73
2023/08/09 10:26:01;;;;;;;;;3.00;1.00;;;;;25.28;46.88;101349.50;5038324;28;45461;-73
2023/08/09 10:28:47;;;;;;;;;2.25;2.25;;;;;25.37;47.11;101375.84;5037806;28;45494;-72
2023/08/09 10:31:14;;;;;;;;;2.00;2.00;;;;;25.26;46.93;101387.09;5036647;28;45344;-74
2023/08/09 10:34:20;;;;;;;;;2.00;2.00;;;;;24.92;46.99;101364.59;5037078;28;45559;-72
2023/08/09 10:37:02;;;;;;;;;2.00;2.00;;;;;24.89;47.72;101385.28;5035949;28;45480;-72
2023/08/09 10:39:31;;;;;;;;;2.75;1.50;;;;;24.86;47.74;101390.78;5036574;28;45436;-71
2023/08/09 10:42:08;;;;;;;;;3.25;3.00;;;;;24.61;48.74;101380.38;5034927;28;46385;-73
2023/08/09 10:44:48;;;;;;;;;5.75;3.00;;;;;24.55;49.21;101381.50;5035574;28;46346;-72
2023/08/09 10:47:32;;;;;;;;;4.00;3.00;;;;;24.51;49.22;101383.47;5036037;28;45471;-72
2023/08/09 10:50:00;;;;;;;;;3.00;3.00;;;;;24.64;49.19;101404.34;5034619;28;45642;-72
2023/08/09 10:52:37;;;;;;;;;2.25;2.25;;;;;24.52;48.76;101381.66;5036669;28;45532;-73
2023/08/09 10:55:18;;;;;;;;;2.50;1.00;;;;;24.75;49.09;101407.38;5035419;28;46091;-72
2023/08/09 10:57:44;;;;;;;;;3.50;2.75;;;;;24.67;48.24;101404.19;5035409;28;45543;-72
2023/08/09 11:00:13;;;;;;;;;2.00;2.00;;;;;24.77;48.32;101416.19;5036207;28;45889;-74
2023/08/09 11:02:45;;;;;;;;;2.00;2.00;;;;;24.86;48.56;101410.41;5036196;28;45410;-73
2023/08/09 11:05:12;;;;;;;;;4.00;2.25;;;;;24.80;48.05;101399.13;5035653;28;45555;-73
2023/08/09 11:07:54;;;;;;;;;2.00;2.00;;;;;24.98;47.75;101417.00;5036941;28;45576;-71
2023/08/09 11:10:31;;;;;;;;;4.50;2.50;;;;;24.89;48.04;101423.69;5037823;28;45310;-72
2023/08/09 11:12:57;;;;;;;;;4.00;3.00;;;;;24.62;48.22;101377.59;5038460;28;45465;-74
2023/08/09 11:15:23;;;;;;;;;4.00;3.25;;;;;24.70;47.79;101401.34;5037829;28;45557;-74
2023/08/09 11:17:50;;;;;;;;;3.00;3.00;;;;;24.70;47.77;101396.88;5037191;28;45494;-72
2023/08/09 11:20:17;;;;;;;;;4.00;4.00;;;;;24.61;48.21;101372.34;5036517;28;45718;-73
2023/08/09 11:23:03;;;;;;;;;2.50;2.50;;;;;24.65;48.01;101388.16;5036367;28;45217;-72
2023/08/09 11:25:31;;;;;;;;;2.75;2.00;;;;;24.82;47.35;101418.66;5046542;28;46294;-72
2023/08/09 11:27:58;;;;;;;;;4.00;4.00;;;;;24.73;47.58;101396.72;5037023;28;45491;-73
2023/08/09 11:30:29;;;;;;;;;3.50;3.50;;;;;24.78;47.57;101415.28;5036865;28;45399;-73